Time;durP1;ratioP1;P1;durP2;ratioP2;P2;SDS_P1;SDS_P2;PMS_P1;PMS_P2;Temp;Humidity;BMP_temperature;BMP_pressure;BME280_temperature;BME280_humidity;BME280_pressure;Samples;Min_cycle;Max_cycle;Signal;HPM_P1;HPM_P2
2021/03/06 00:00:39;;;;;;;8.17;7.53;;;-1.00;99.90;;;-0.53;76.46;99230.66;5198936;28;20281;-60
2021/03/06 00:03:11;;;;;;;7.97;7.37;;;-1.10;99.90;;;-0.49;76.39;99229.41;5204606;28;20253;-60
2021/03/06 00:05:45;;;;;;;9.00;8.27;;;-1.10;99.90;;;-0.64;74.57;99223.41;5203521;28;20308;-60
2021/03/06 00:08:17;;;;;;;8.07;7.37;;;-1.20;99.90;;;-0.68;76.41;99222.16;5199044;28;20201;-61
2021/03/06 00:10:49;;;;;;;8.57;7.67;;;-1.30;99.90;;;-0.71;75.88;99220.88;5201641;28;20285;-59
2021/03/06 00:13:21;;;;;;;7.80;7.20;;;-1.20;99.90;;;-0.74;76.44;99225.53;5201261;28;20218;-60
2021/03/06 00:15:53;;;;;;;8.27;7.50;;;-1.20;99.90;;;-0.66;75.51;99219.81;5204987;28;20194;-60
2021/03/06 00:18:26;;;;;;;8.73;7.83;;;-1.30;99.90;;;-0.56;75.54;99221.84;5200727;28;20206;-60
2021/03/06 00:20:59;;;;;;;8.97;7.83;;;-1.20;99.90;;;-0.62;76.45;99221.09;5191688;28;20198;-60
2021/03/06 00:23:49;;;;;;;8.50;7.80;;;-1.30;99.90;;;-0.69;76.71;99220.38;5191751;28;20217;-60
2021/03/06 00:26:21;;;;;;;9.23;8.33;;;-1.20;99.90;;;-0.69;75.28;99224.47;5198995;28;20217;-60
2021/03/06 00:28:53;;;;;;;8.43;7.63;;;-1.20;99.90;;;-0.70;76.20;99218.53;5198193;28;20198;-60
2021/03/06 00:31:25;;;;;;;8.27;7.57;;;-1.30;99.90;;;-0.65;76.66;99225.75;5190495;28;20200;-60
2021/03/06 00:33:58;;;;;;;8.83;7.97;;;-1.30;99.90;;;-0.72;76.14;99229.09;5204679;28;20735;-59
2021/03/06 00:36:31;;;;;;;9.03;8.00;;;-1.30;99.90;;;-0.68;76.17;99221.25;5199141;28;20190;-60
2021/03/06 00:39:05;;;;;;;9.07;8.23;;;-1.20;99.90;;;-0.61;78.08;99213.75;5199714;28;20198;-60
2021/03/06 00:41:37;;;;;;;8.47;7.67;;;-1.20;99.90;;;-0.64;78.07;99215.00;5195089;28;20204;-60
2021/03/06 00:44:09;;;;;;;8.90;8.00;;;-1.10;99.90;;;-0.61;76.50;99221.28;5193258;28;20219;-58
2021/03/06 00:46:41;;;;;;;8.57;7.87;;;-1.10;99.90;;;-0.70;76.34;99222.66;5189102;28;20321;-60
2021/03/06 00:49:16;;;;;;;9.53;7.97;;;-1.30;99.90;;;-0.73;76.08;99227.31;5201042;28;20231;-60
2021/03/06 00:51:49;;;;;;;8.50;7.70;;;-1.30;99.90;;;-0.73;76.60;99222.28;5185734;28;20224;-60
2021/03/06 00:54:21;;;;;;;8.43;7.67;;;-1.30;99.90;;;-0.72;75.44;99221.56;5191936;28;20220;-60
2021/03/06 00:56:53;;;;;;;8.30;7.60;;;-1.30;99.90;;;-0.65;75.87;99220.72;5192091;28;20217;-60
2021/03/06 00:59:25;;;;;;;8.20;7.37;;;-1.30;99.90;;;-0.72;75.69;99224.09;5190053;28;20206;-60
2021/03/06 01:01:58;;;;;;;8.93;8.17;;;-1.30;99.90;;;-0.75;75.56;99223.72;5199807;28;20203;-59
2021/03/06 01:04:30;;;;;;;8.70;8.00;;;-1.40;99.90;;;-0.76;74.82;99224.44;5201151;28;20263;-60
2021/03/06 01:07:03;;;;;;;8.90;8.20;;;-1.40;99.90;;;-0.69;74.67;99219.44;5203041;28;20221;-60
2021/03/06 01:09:35;;;;;;;9.23;8.47;;;-1.40;99.90;;;-0.77;75.88;99220.13;5190275;28;20205;-60
2021/03/06 01:12:07;;;;;;;8.53;7.60;;;-1.40;99.90;;;-0.83;75.92;99215.28;5195848;28;20198;-60
2021/03/06 01:14:39;;;;;;;8.33;7.63;;;-1.40;99.90;;;-0.79;75.00;99216.53;5197589;28;20237;-60
2021/03/06 01:17:11;;;;;;;8.93;8.10;;;-1.40;99.90;;;-0.84;75.47;99212.56;5206565;28;20195;-60
2021/03/06 01:19:44;;;;;;;8.23;7.53;;;-1.50;99.90;;;-0.86;75.04;99206.44;5188702;28;20693;-60
2021/03/06 01:22:16;;;;;;;8.07;7.43;;;-1.40;99.90;;;-0.89;75.90;99213.59;5190414;28;20206;-60
2021/03/06 01:24:48;;;;;;;9.73;8.83;;;-1.50;99.90;;;-0.84;75.11;99212.56;5200237;28;20218;-61
2021/03/06 01:27:20;;;;;;;8.50;7.80;;;-1.50;99.90;;;-0.83;75.58;99207.75;5199282;28;20202;-60
2021/03/06 01:29:52;;;;;;;9.00;8.17;;;-1.50;99.90;;;-0.90;74.12;99212.69;5201960;28;20198;-60
2021/03/06 01:32:24;;;;;;;8.90;8.13;;;-1.50;99.90;;;-1.03;73.45;99221.94;5188188;28;20198;-60
2021/03/06 01:34:57;;;;;;;9.23;8.30;;;-1.70;99.90;;;-1.06;73.79;99222.47;5204124;28;20194;-60
2021/03/06 01:37:30;;;;;;;8.67;7.97;;;-1.70;99.90;;;-1.07;74.76;99217.25;5208406;28;20235;-59
2021/03/06 01:40:05;;;;;;;9.23;8.40;;;-1.70;99.90;;;-1.10;73.95;99210.25;5190327;28;20297;-60
2021/03/06 01:42:38;;;;;;;8.80;8.00;;;-1.70;99.90;;;-1.12;75.14;99214.16;5168817;28;20217;-58
2021/03/06 01:45:12;;;;;;;8.40;7.70;;;-1.70;99.90;;;-1.13;74.93;99215.78;5203294;28;20197;-60
2021/03/06 01:47:44;;;;;;;8.03;7.43;;;-1.70;99.90;;;-1.25;74.47;99204.25;5206633;28;20223;-60
2021/03/06 01:50:26;;;;;;;8.47;7.67;;;-1.80;99.90;;;-1.13;76.10;99202.34;5205650;28;20197;-60
2021/03/06 01:53:01;;;;;;;8.07;7.47;;;-1.70;99.90;;;-1.17;74.75;99210.22;5196924;28;20218;-60
2021/03/06 01:55:37;;;;;;;8.53;7.73;;;-1.70;99.90;;;-1.17;74.76;99210.22;5204084;28;20212;-60
2021/03/06 01:58:10;;;;;;;7.87;7.27;;;-1.70;99.90;;;-1.23;73.98;99209.44;5204770;28;20198;-58
2021/03/06 02:00:43;;;;;;;8.83;8.03;;;-1.80;99.90;;;-1.21;75.67;99203.00;5189331;28;20205;-59
2021/03/06 02:03:15;;;;;;;8.20;7.50;;;-1.70;99.90;;;-1.08;76.10;99207.94;5187272;28;20233;-58
2021/03/06 02:05:47;;;;;;;8.40;7.70;;;-1.70;99.90;;;-1.15;75.05;99196.25;5205020;28;20538;-60
2021/03/06 02:08:20;;;;;;;8.30;7.50;;;-1.70;99.90;;;-1.13;74.30;99198.22;5195703;28;20196;-59
2021/03/06 02:10:52;;;;;;;8.60;7.70;;;-1.70;99.90;;;-1.16;73.92;99201.97;5175822;28;20196;-60
2021/03/06 02:13:53;;;;;;;8.33;7.63;;;-1.70;99.90;;;-1.31;74.13;99195.97;5199193;28;20218;-59
2021/03/06 02:16:34;;;;;;;7.97;7.37;;;-1.80;99.90;;;-1.27;73.41;99192.22;5205476;28;20190;-59
2021/03/06 02:19:27;;;;;;;8.07;7.53;;;-1.80;99.90;;;-1.24;74.21;99197.63;5188405;28;20591;-60
2021/03/06 02:22:23;;;;;;;8.70;7.57;;;-1.80;99.90;;;-1.25;73.49;99190.81;5188256;28;20201;-59
2021/03/06 02:25:12;;;;;;;8.37;7.57;;;-1.80;99.90;;;-1.29;74.24;99183.59;5194960;28;20560;-59
2021/03/06 02:27:57;;;;;;;8.43;7.67;;;-1.80;99.90;;;-1.30;74.37;99184.31;5205511;28;20567;-60
2021/03/06 02:30:32;;;;;;;8.90;8.20;;;-1.80;99.90;;;-1.27;75.33;99180.56;5194937;28;20224;-60
2021/03/06 02:33:05;;;;;;;8.33;7.53;;;-1.80;99.90;;;-1.18;73.99;99188.34;5199289;28;20234;-58
2021/03/06 02:35:42;;;;;;;8.70;7.90;;;-1.80;99.90;;;-1.17;74.35;99178.50;5188912;28;20190;-58
2021/03/06 02:38:15;;;;;;;8.40;7.70;;;-1.80;99.90;;;-1.22;73.79;99187.06;5205245;28;20280;-58
2021/03/06 02:40:48;;;;;;;8.50;7.73;;;-1.80;99.90;;;-1.20;74.97;99184.75;5205280;28;20571;-59
2021/03/06 02:43:21;;;;;;;8.87;8.17;;;-1.80;99.90;;;-1.38;74.74;99189.28;5188232;28;20269;-58
2021/03/06 02:45:56;;;;;;;8.93;8.10;;;-1.90;99.90;;;-1.32;75.16;99185.72;5188898;28;20222;-59
2021/03/06 02:48:28;;;;;;;8.90;8.00;;;-1.90;99.90;;;-1.41;73.87;99186.38;5187912;28;20292;-59
2021/03/06 02:51:00;;;;;;;9.27;8.57;;;-2.00;99.90;;;-1.36;74.46;99182.84;5187116;28;20210;-59
2021/03/06 02:53:33;;;;;;;8.53;7.80;;;-1.90;99.90;;;-1.32;74.36;99185.72;5206443;28;20783;-60
2021/03/06 02:56:05;;;;;;;8.93;8.23;;;-1.90;99.90;;;-1.38;74.35;99183.38;5194456;28;20283;-60
2021/03/06 02:59:12;;;;;;;8.63;7.93;;;-2.00;99.90;;;-1.43;73.75;99177.81;5191993;28;20198;-60
2021/03/06 03:01:55;;;;;;;8.00;7.33;;;-2.00;99.90;;;-1.36;73.94;99180.34;5189899;28;20201;-59
2021/03/06 03:04:38;;;;;;;8.60;7.90;;;-1.90;99.90;;;-1.29;74.45;99178.59;5185533;28;20230;-60
2021/03/06 03:07:21;;;;;;;8.63;7.87;;;-2.00;99.90;;;-1.39;74.19;99182.47;5178875;28;20261;-60
2021/03/06 03:09:58;;;;;;;8.67;7.97;;;-2.10;99.90;;;-1.41;75.30;99176.34;5185894;28;20208;-60
2021/03/06 03:12:35;;;;;;;9.20;8.40;;;-2.10;99.90;;;-1.44;76.04;99168.47;5199187;28;20567;-60
2021/03/06 03:15:13;;;;;;;8.97;8.17;;;-2.20;99.90;;;-1.41;75.28;99170.44;5187586;28;20201;-60
2021/03/06 03:17:48;;;;;;;9.83;8.93;;;-2.30;99.90;;;-1.51;75.89;99170.94;5193876;28;20204;-60
2021/03/06 03:20:31;;;;;;;9.10;8.27;;;-2.40;99.90;;;-1.62;76.85;99179.63;5194662;28;20894;-58
2021/03/06 03:23:09;;;;;;;10.13;9.20;;;-2.40;99.90;;;-1.77;76.82;99186.81;5186181;28;20227;-61
2021/03/06 03:25:42;;;;;;;9.53;8.63;;;-2.60;99.90;;;-1.94;76.65;99170.56;5201257;28;20222;-59
2021/03/06 03:28:16;;;;;;;9.77;8.97;;;-2.70;99.90;;;-2.01;77.39;99173.00;5185954;28;20740;-59
2021/03/06 03:30:48;;;;;;;9.10;8.30;;;-2.70;99.90;;;-2.00;77.46;99169.81;5199452;28;20204;-60
2021/03/06 03:33:23;;;;;;;9.47;8.57;;;-2.70;99.90;;;-1.96;77.46;99177.00;5189489;28;20596;-60
2021/03/06 03:35:56;;;;;;;9.50;8.70;;;-2.70;99.90;;;-1.99;78.80;99178.22;5188132;28;20201;-59
2021/03/06 03:38:28;;;;;;;9.53;8.70;;;-2.70;99.90;;;-2.07;77.99;99179.75;5200189;28;20195;-60
2021/03/06 03:41:01;;;;;;;10.27;9.27;;;-2.80;99.90;;;-2.05;77.92;99176.72;5198388;28;20235;-59
2021/03/06 03:43:34;;;;;;;10.60;9.70;;;-2.80;99.90;;;-2.05;78.93;99173.34;5203854;28;20589;-59
2021/03/06 03:46:07;;;;;;;8.57;7.87;;;-2.80;99.90;;;-2.28;77.68;99171.31;5194440;28;20214;-61
2021/03/06 03:48:44;;;;;;;8.13;7.43;;;-2.90;99.90;;;-2.27;78.61;99177.22;5191668;28;20194;-60
2021/03/06 03:51:16;;;;;;;9.40;8.60;;;-3.00;99.90;;;-2.30;78.07;99182.72;5203694;28;20244;-58
2021/03/06 03:53:49;;;;;;;9.43;8.53;;;-2.90;99.90;;;-2.33;78.18;99186.47;5205495;28;20241;-60
2021/03/06 03:56:29;;;;;;;9.50;8.47;;;-2.90;99.90;;;-2.32;78.57;99184.16;5196154;28;20221;-60
2021/03/06 03:59:01;;;;;;;10.27;9.30;;;-2.90;99.90;;;-2.33;78.40;99187.34;5185583;28;20208;-59
2021/03/06 04:01:39;;;;;;;9.90;9.10;;;-2.90;99.90;;;-2.28;77.30;99195.47;5203826;28;20206;-58
2021/03/06 04:04:30;;;;;;;9.57;8.63;;;-2.80;99.90;;;-2.17;77.90;99200.22;5202202;28;20268;-60
2021/03/06 04:07:02;;;;;;;9.43;8.63;;;-2.80;99.90;;;-2.30;77.66;99192.75;5171362;28;20593;-62
2021/03/06 04:09:34;;;;;;;9.50;8.63;;;-2.80;99.90;;;-2.31;77.53;99195.06;5185555;28;20194;-61
2021/03/06 04:12:07;;;;;;;9.37;8.67;;;-2.90;99.90;;;-2.36;77.11;99198.59;5197669;28;20205;-60
2021/03/06 04:14:39;;;;;;;10.20;9.40;;;-2.90;99.90;;;-2.27;77.17;99198.13;5196011;28;20217;-60
2021/03/06 04:17:12;;;;;;;9.40;8.70;;;-2.80;99.90;;;-2.25;76.94;99189.94;5186778;28;20201;-60
2021/03/06 04:19:45;;;;;;;9.07;8.27;;;-2.80;99.90;;;-2.30;76.57;99197.75;5192103;28;20202;-60
2021/03/06 04:22:17;;;;;;;9.37;8.57;;;-2.90;99.90;;;-2.33;77.16;99201.47;5197355;28;20199;-60
2021/03/06 04:24:49;;;;;;;9.43;8.67;;;-2.90;99.90;;;-2.31;75.71;99200.97;5184651;28;20313;-60
2021/03/06 04:27:21;;;;;;;9.60;8.80;;;-2.80;99.90;;;-2.29;75.79;99194.56;5192095;28;20218;-61
2021/03/06 04:29:53;;;;;;;10.03;9.23;;;-2.80;99.90;;;-2.21;75.75;99199.63;5205137;28;20200;-61
2021/03/06 04:32:25;;;;;;;9.43;8.63;;;-2.80;99.90;;;-2.14;74.75;99199.72;5203860;28;20190;-60
2021/03/06 04:34:58;;;;;;;9.13;8.43;;;-2.70;99.90;;;-2.17;74.13;99200.22;5204771;28;20206;-60
2021/03/06 04:37:30;;;;;;;9.07;8.27;;;-2.70;99.90;;;-2.18;75.69;99193.41;5195812;28;20775;-63
2021/03/06 04:40:04;;;;;;;9.57;8.77;;;-2.70;99.90;;;-2.22;75.41;99200.34;5201880;28;20557;-59
2021/03/06 04:42:36;;;;;;;9.17;8.47;;;-2.70;99.90;;;-2.19;74.61;99195.72;5204856;28;20204;-60
2021/03/06 04:45:10;;;;;;;9.27;8.57;;;-2.70;99.90;;;-2.24;74.60;99199.25;5192768;28;20208;-59
2021/03/06 04:47:44;;;;;;;8.90;8.30;;;-2.80;99.90;;;-2.27;74.93;99208.16;5185167;28;20222;-58
2021/03/06 04:50:17;;;;;;;9.37;8.57;;;-2.80;99.90;;;-2.19;74.92;99213.25;5184885;28;20203;-59
2021/03/06 04:52:49;;;;;;;9.40;8.53;;;-2.80;99.90;;;-2.28;74.49;99213.88;5192885;28;20221;-59
2021/03/06 04:55:21;;;;;;;9.23;8.63;;;-2.80;99.90;;;-2.31;74.56;99216.00;5203688;28;20202;-59
2021/03/06 04:57:53;;;;;;;9.37;8.47;;;-2.80;99.90;;;-2.30;74.86;99217.78;5190428;28;20240;-59
2021/03/06 05:00:25;;;;;;;9.07;8.27;;;-2.90;99.90;;;-2.27;74.68;99210.66;5168047;28;20297;-60
2021/03/06 05:02:58;;;;;;;9.13;8.43;;;-2.80;99.90;;;-2.21;74.16;99209.66;5189194;28;20222;-59
2021/03/06 05:05:31;;;;;;;8.97;8.27;;;-2.80;99.90;;;-2.12;74.60;99208.31;5186212;28;20593;-59
2021/03/06 05:08:03;;;;;;;9.30;8.57;;;-2.80;99.90;;;-2.14;74.13;99210.63;5196904;28;20284;-60
2021/03/06 05:10:35;;;;;;;9.03;8.30;;;-2.80;99.90;;;-2.18;75.35;99205.91;5200408;28;20194;-59
2021/03/06 05:13:07;;;;;;;9.10;8.37;;;-2.90;99.90;;;-2.29;75.35;99199.56;5194704;28;20455;-60
2021/03/06 05:15:39;;;;;;;8.50;7.80;;;-2.90;99.90;;;-2.31;74.36;99210.97;5193037;28;20246;-58
2021/03/06 05:18:11;;;;;;;9.07;8.37;;;-2.80;99.90;;;-2.30;74.43;99212.78;5187299;28;20570;-60
2021/03/06 05:20:44;;;;;;;9.17;8.47;;;-2.80;99.90;;;-2.17;74.11;99205.25;5189565;28;20199;-60
2021/03/06 05:23:16;;;;;;;8.50;7.80;;;-2.70;99.90;;;-2.16;72.88;99196.13;5186310;28;20251;-58
2021/03/06 05:25:48;;;;;;;9.10;8.30;;;-2.70;99.90;;;-2.12;72.78;99205.81;5187460;28;20202;-60
2021/03/06 05:28:21;;;;;;;11.67;10.60;;;-2.70;99.90;;;-2.05;72.66;99205.91;5194991;28;20198;-60
2021/03/06 05:30:53;;;;;;;11.83;10.63;;;-2.80;99.90;;;-2.13;73.38;99207.41;5187650;28;20195;-60
2021/03/06 05:33:26;;;;;;;10.97;10.00;;;-2.80;99.90;;;-2.16;75.22;99207.03;5202910;22;20233;-60
2021/03/06 05:35:59;;;;;;;10.90;10.00;;;-2.90;99.90;;;-2.13;74.51;99209.03;5222969;28;20199;-60
2021/03/06 05:38:31;;;;;;;10.90;9.90;;;-3.00;99.90;;;-2.15;75.08;99215.44;5224454;28;20704;-60
2021/03/06 05:41:03;;;;;;;10.93;9.87;;;-3.00;99.90;;;-2.19;76.50;99221.66;5217181;28;20194;-60
2021/03/06 05:43:35;;;;;;;9.93;9.03;;;-3.00;99.90;;;-2.26;76.51;99219.09;5202757;28;20224;-58
2021/03/06 05:46:07;;;;;;;10.93;10.00;;;-3.00;99.90;;;-2.32;76.34;99221.72;5200187;28;20222;-60
2021/03/06 05:48:40;;;;;;;11.33;10.23;;;-3.00;99.90;;;-2.32;76.98;99224.22;5202419;28;20293;-60
2021/03/06 05:51:13;;;;;;;10.97;9.87;;;-3.00;99.90;;;-2.33;76.93;99227.41;5189761;28;20209;-59
2021/03/06 05:53:45;;;;;;;11.57;10.47;;;-3.10;99.90;;;-2.36;76.04;99218.59;5190607;28;20646;-60
2021/03/06 05:56:20;;;;;;;11.10;10.07;;;-3.10;99.90;;;-2.39;77.23;99216.59;5200627;28;20202;-60
2021/03/06 05:58:54;;;;;;;10.97;9.97;;;-3.10;99.90;;;-2.35;77.44;99211.28;5204543;28;20193;-60
2021/03/06 06:01:26;;;;;;;12.50;11.40;;;-3.20;99.90;;;-2.39;76.34;99210.72;5202069;28;20586;-60
2021/03/06 06:04:02;;;;;;;12.60;11.40;;;-3.20;99.90;;;-2.45;75.91;99205.81;5208627;28;20221;-60
2021/03/06 06:06:36;;;;;;;12.53;11.43;;;-3.30;99.90;;;-2.34;76.87;99203.09;5199329;28;20777;-60
2021/03/06 06:09:08;;;;;;;11.83;10.70;;;-3.20;99.90;;;-2.27;75.78;99208.16;5192388;28;20228;-60
2021/03/06 06:11:40;;;;;;;11.77;10.77;;;-3.20;99.90;;;-2.25;75.11;99214.97;5204941;28;20198;-60
2021/03/06 06:14:12;;;;;;;11.13;10.13;;;-3.20;99.90;;;-2.33;76.60;99212.38;5206013;28;20690;-60
2021/03/06 06:16:44;;;;;;;11.50;10.40;;;-3.20;99.90;;;-2.35;76.15;99211.28;5203168;28;20198;-60
2021/03/06 06:19:17;;;;;;;11.60;10.60;;;-3.20;99.90;;;-2.46;75.93;99214.03;5209866;28;20198;-59
2021/03/06 06:21:51;;;;;;;11.90;10.80;;;-3.30;99.90;;;-2.43;76.88;99223.50;5192221;28;20199;-60
2021/03/06 06:24:23;;;;;;;11.97;10.87;;;-3.20;99.90;;;-2.23;76.06;99223.56;5196270;28;20228;-60
2021/03/06 06:26:57;;;;;;;12.97;11.80;;;-3.10;99.90;;;-1.99;76.06;99221.69;5208958;28;20217;-59
2021/03/06 06:29:38;;;;;;;12.80;11.57;;;-3.00;99.90;;;-1.66;74.92;99232.59;5197826;28;20244;-62
2021/03/06 06:32:12;;;;;;;10.50;9.70;;;-2.80;99.90;;;-1.47;73.99;99232.38;5189185;28;20205;-62
2021/03/06 06:34:58;;;;;;;10.73;9.67;;;-2.70;99.90;;;-1.38;74.07;99229.38;5187815;28;20233;-64
2021/03/06 06:37:31;;;;;;;10.53;9.63;;;-2.50;99.90;;;-1.17;74.09;99236.19;5189610;28;20194;-59
2021/03/06 06:40:18;;;;;;;9.93;9.03;;;-2.30;99.90;;;-0.85;70.49;99230.84;5199661;28;20566;-59
2021/03/06 06:42:50;;;;;;;10.10;9.30;;;-1.80;99.90;;;-0.69;70.75;99229.47;5198138;28;20546;-59
2021/03/06 06:45:23;;;;;;;10.00;9.10;;;-1.80;99.90;;;-0.41;70.46;99233.75;5196765;28;20237;-59
2021/03/06 06:47:55;;;;;;;10.77;9.70;;;-1.70;99.90;;;-0.06;69.49;99230.47;5192408;28;20191;-58
2021/03/06 06:50:30;;;;;;;9.90;9.10;;;-1.60;99.90;;;0.44;67.89;99227.13;5204600;28;20660;-59
2021/03/06 06:53:03;;;;;;;9.33;8.53;;;-1.30;99.90;;;0.85;66.26;99224.41;5199285;28;20651;-58
2021/03/06 06:55:37;;;;;;;9.10;8.40;;;-1.10;99.90;;;1.02;65.41;99228.00;5190670;28;20206;-58
2021/03/06 06:58:09;;;;;;;9.37;8.57;;;-0.80;99.90;;;1.21;65.76;99231.91;5198537;28;20245;-59
2021/03/06 07:00:41;;;;;;;9.93;9.07;;;-0.60;99.90;;;1.42;65.06;99230.06;5207661;28;20204;-59
2021/03/06 07:03:21;;;;;;;10.07;9.27;;;-0.40;99.90;;;1.55;64.96;99225.69;5209146;28;20685;-59
2021/03/06 07:05:53;;;;;;;9.57;8.77;;;-0.20;99.90;;;1.51;63.85;99233.63;5196948;28;20549;-58
2021/03/06 07:08:26;;;;;;;9.67;8.97;;;-0.10;99.90;;;1.48;65.21;99238.31;5199021;28;20688;-59
2021/03/06 07:10:58;;;;;;;10.20;9.40;;;0.10;99.90;;;1.35;64.70;99238.53;5192335;28;20197;-60
2021/03/06 07:13:41;;;;;;;9.17;8.53;;;0.10;99.90;;;1.70;65.03;99236.63;5198033;28;20333;-58
2021/03/06 07:16:13;;;;;;;8.93;8.20;;;0.60;99.90;;;2.00;62.20;99237.56;5190035;28;20229;-58
2021/03/06 07:18:45;;;;;;;8.70;8.00;;;1.10;99.90;;;2.19;59.39;99232.03;5201812;28;20277;-58
2021/03/06 07:21:17;;;;;;;7.27;6.67;;;1.20;99.90;;;2.33;58.86;99231.06;5203753;28;20200;-57
2021/03/06 07:23:50;;;;;;;7.60;7.07;;;1.30;99.90;;;2.50;56.88;99231.28;5199283;28;20225;-58
2021/03/06 07:26:24;;;;;;;7.53;6.93;;;1.50;99.90;;;2.68;57.79;99235.81;5198037;28;20208;-58
2021/03/06 07:29:05;;;;;;;7.83;7.30;;;1.70;99.90;;;2.82;55.54;99234.81;5207951;28;20210;-58
2021/03/06 07:31:39;;;;;;;7.43;6.83;;;2.00;99.90;;;2.88;56.52;99237.09;5199521;28;20199;-59
2021/03/06 07:34:12;;;;;;;6.90;6.30;;;2.00;99.90;;;3.04;55.21;99240.56;5199106;28;20218;-59
2021/03/06 07:36:46;;;;;;;7.30;6.60;;;2.20;99.90;;;3.16;55.26;99234.31;5208606;28;20227;-59
2021/03/06 07:39:19;;;;;;;7.77;7.07;;;2.40;99.90;;;3.42;55.71;99242.88;5196766;28;20202;-59
2021/03/06 07:41:57;;;;;;;7.60;6.90;;;2.70;99.90;;;3.66;54.18;99237.91;5206270;28;20195;-59
2021/03/06 07:44:30;;;;;;;7.50;6.87;;;2.80;99.90;;;3.66;52.79;99237.00;5208716;28;20212;-59
2021/03/06 07:47:02;;;;;;;7.87;7.20;;;2.70;99.90;;;3.82;54.37;99242.94;5208540;28;20294;-59
2021/03/06 07:49:36;;;;;;;7.67;7.00;;;3.00;99.90;;;3.83;54.35;99252.31;5210525;28;20581;-59
2021/03/06 07:52:09;;;;;;;8.13;7.50;;;3.00;99.90;;;4.23;55.00;99248.91;5208952;28;20623;-58
2021/03/06 07:54:42;;;;;;;7.90;7.30;;;3.40;99.90;;;4.39;54.15;99239.63;5209665;28;20227;-57
2021/03/06 07:57:14;;;;;;;7.20;6.50;;;3.60;99.90;;;4.59;52.98;99240.78;5209603;28;20223;-56
2021/03/06 07:59:52;;;;;;;7.93;7.33;;;3.60;99.90;;;4.66;52.31;99246.63;5209729;28;20218;-58
2021/03/06 08:02:37;;;;;;;8.23;7.53;;;3.80;99.90;;;4.57;52.95;99249.84;5208579;28;20268;-58
2021/03/06 08:05:46;;;;;;;8.77;7.87;;;3.70;99.90;;;4.78;52.70;99252.06;5209610;28;20231;-57
2021/03/06 08:09:04;;;;;;;7.33;6.67;;;3.90;99.90;;;4.95;52.14;99238.53;5197876;28;20277;-55
2021/03/06 08:11:48;;;;;;;9.13;7.80;;;4.20;99.70;;;4.95;52.20;99242.00;5190938;28;20217;-58
2021/03/06 08:14:42;;;;;;;7.43;6.73;;;4.30;99.50;;;5.04;50.46;99248.75;5202014;28;20221;-58
2021/03/06 08:17:37;;;;;;;6.77;6.17;;;4.60;98.10;;;5.12;48.10;99250.38;5197792;28;20252;-59
2021/03/06 08:20:27;;;;;;;6.70;6.10;;;4.50;96.20;;;5.15;48.33;99251.63;5197648;28;20657;-58
2021/03/06 08:23:21;;;;;;;7.07;6.57;;;4.50;96.10;;;5.22;47.16;99242.97;5188874;28;20195;-58
2021/03/06 08:26:29;;;;;;;7.10;6.50;;;4.80;95.10;;;5.09;48.55;99252.63;5199196;28;20277;-58
2021/03/06 08:29:33;;;;;;;7.33;6.63;;;4.80;95.50;;;5.05;47.84;99248.00;5197575;28;20198;-58
2021/03/06 08:32:07;;;;;;;6.17;5.67;;;4.90;95.30;;;5.15;48.94;99240.56;5197268;28;20300;-58
2021/03/06 08:34:45;;;;;;;6.80;6.33;;;4.70;95.60;;;5.11;48.21;99246.97;5190371;28;20225;-59
2021/03/06 08:37:39;;;;;;;6.67;6.07;;;4.60;95.30;;;5.26;47.16;99245.06;5198084;28;20225;-58
2021/03/06 08:40:15;;;;;;;6.93;6.43;;;4.90;94.50;;;5.34;46.08;99238.22;5197228;28;20194;-58
2021/03/06 08:42:50;;;;;;;6.97;6.27;;;5.00;93.60;;;5.36;46.22;99241.81;5207906;28;20204;-58
2021/03/06 08:45:26;;;;;;;6.70;6.20;;;5.10;93.60;;;5.08;45.82;99243.22;5200811;28;20221;-58
2021/03/06 08:48:01;;;;;;;6.23;5.67;;;4.80;93.10;;;5.01;45.65;99246.78;5202265;28;20281;-58
2021/03/06 08:50:35;;;;;;;6.93;6.43;;;4.60;93.20;;;5.00;45.44;99249.16;5191431;28;20282;-60
2021/03/06 08:53:12;;;;;;;6.60;6.10;;;4.70;93.00;;;4.82;46.20;99249.09;5195682;28;20237;-60
2021/03/06 08:55:45;;;;;;;6.23;5.73;;;4.50;93.10;;;4.99;46.00;99242.31;5188663;28;20204;-58
2021/03/06 08:58:18;;;;;;;6.57;6.03;;;4.60;93.30;;;4.94;46.14;99242.72;5193771;28;20288;-62
2021/03/06 09:00:54;;;;;;;6.60;6.10;;;4.70;93.10;;;4.94;46.13;99244.38;5208262;28;20383;-60
2021/03/06 09:03:28;;;;;;;6.57;6.07;;;4.70;93.10;;;4.99;46.06;99252.44;5201475;28;20297;-59
2021/03/06 09:06:01;;;;;;;6.70;6.13;;;4.70;93.10;;;4.94;45.91;99255.38;5209091;28;20686;-61
2021/03/06 09:08:33;;;;;;;6.67;6.17;;;4.70;92.80;;;4.66;45.40;99254.22;5192679;28;20194;-61
2021/03/06 09:11:05;;;;;;;6.83;6.33;;;4.40;92.20;;;4.62;45.58;99247.06;5188802;28;20212;-59
2021/03/06 09:13:37;;;;;;;6.73;6.23;;;4.40;92.20;;;4.66;45.37;99256.75;5190759;28;20228;-60
2021/03/06 09:16:12;;;;;;;5.70;5.30;;;4.60;92.10;;;4.82;44.94;99259.22;5204776;28;20201;-60
2021/03/06 09:18:44;;;;;;;6.20;5.80;;;4.60;91.80;;;5.20;45.81;99255.47;5188040;28;20211;-59
2021/03/06 09:21:20;;;;;;;7.27;6.67;;;4.80;92.80;;;5.61;44.28;99246.03;5197327;28;20210;-61
2021/03/06 09:23:53;;;;;;;6.77;6.13;;;5.40;92.00;;;5.83;43.71;99250.66;5206776;28;20730;-61
2021/03/06 09:26:26;;;;;;;6.03;5.57;;;5.60;91.10;;;5.88;42.33;99257.97;5196708;28;20204;-61
2021/03/06 09:28:58;;;;;;;6.00;5.60;;;5.70;90.30;;;5.62;43.13;99246.94;5208310;28;20665;-62
2021/03/06 09:31:33;;;;;;;5.97;5.47;;;5.40;90.30;;;5.52;42.98;99244.22;5197193;28;20228;-61
2021/03/06 09:34:05;;;;;;;6.17;5.63;;;5.40;90.20;;;5.60;43.10;99245.88;5190634;28;20735;-62
2021/03/06 09:36:40;;;;;;;6.83;6.40;;;5.50;90.50;;;5.67;42.81;99244.84;5198784;28;20310;-61
2021/03/06 09:39:13;;;;;;;6.07;5.57;;;5.40;90.20;;;5.58;42.47;99249.88;5210223;28;20209;-61
2021/03/06 09:41:45;;;;;;;6.00;5.50;;;5.40;89.80;;;5.39;42.05;99252.25;5212031;28;20207;-61
2021/03/06 09:44:18;;;;;;;5.77;5.27;;;5.30;88.70;;;5.17;43.00;99251.75;5201656;28;20223;-61
2021/03/06 09:46:50;;;;;;;5.77;5.37;;;4.90;90.00;;;4.99;44.53;99252.44;5195317;28;20199;-60
2021/03/06 09:49:22;;;;;;;5.67;5.27;;;4.70;91.30;;;5.09;42.53;99245.91;5201194;28;20316;-60
2021/03/06 09:51:55;;;;;;;6.67;6.07;;;4.80;89.90;;;5.02;42.94;99238.44;5203694;28;20267;-60
2021/03/06 09:54:35;;;;;;;6.17;5.70;;;4.80;90.00;;;5.06;44.10;99237.09;5207689;28;20246;-61
2021/03/06 09:57:08;;;;;;;6.30;5.87;;;4.80;90.80;;;5.24;43.04;99246.56;5199962;28;20649;-58
2021/03/06 09:59:41;;;;;;;7.10;6.53;;;5.00;90.40;;;5.58;42.28;99242.28;5210414;28;20275;-59
2021/03/06 10:02:15;;;;;;;5.90;5.50;;;5.30;89.60;;;5.51;41.03;99250.03;5189118;28;20200;-58
2021/03/06 10:04:48;;;;;;;6.50;5.90;;;5.30;87.60;;;5.63;41.97;99246.16;5205337;28;20225;-58
2021/03/06 10:07:23;;;;;;;6.23;5.73;;;5.40;88.90;;;5.87;41.72;99243.50;5199932;28;20202;-61
2021/03/06 10:09:55;;;;;;;6.47;5.97;;;5.70;88.60;;;5.94;40.52;99247.56;5194670;28;20202;-61
2021/03/06 10:12:27;;;;;;;5.70;5.30;;;5.70;86.30;;;6.06;40.03;99233.53;5194495;28;20601;-61
2021/03/06 10:14:59;;;;;;;6.13;5.73;;;5.80;85.90;;;5.99;39.91;99231.16;5198746;28;20222;-61
2021/03/06 10:17:32;;;;;;;5.30;4.90;;;5.90;85.40;;;6.10;40.10;99234.72;5205222;28;20223;-60
2021/03/06 10:20:06;;;;;;;6.97;5.77;;;5.80;85.60;;;6.28;40.17;99235.59;5204569;28;20293;-60
2021/03/06 10:22:47;;;;;;;5.63;5.23;;;6.10;85.80;;;6.13;40.66;99237.56;5206634;28;20641;-61
2021/03/06 10:25:24;;;;;;;5.37;5.07;;;5.90;85.80;;;6.08;40.22;99236.22;5200762;28;20215;-61
2021/03/06 10:27:56;;;;;;;5.43;5.03;;;5.80;85.80;;;6.23;40.87;99229.19;5198802;28;20200;-60
2021/03/06 10:30:30;;;;;;;5.57;5.17;;;5.80;87.00;;;6.24;40.88;99231.00;5199368;28;20310;-61
2021/03/06 10:33:05;;;;;;;6.03;5.53;;;5.90;87.20;;;6.30;39.13;99224.84;5196493;28;20579;-61
2021/03/06 10:35:40;;;;;;;6.20;5.70;;;6.00;84.50;;;6.41;39.69;99227.50;5190541;28;20200;-58
2021/03/06 10:38:15;;;;;;;5.63;5.23;;;6.10;85.30;;;6.43;39.48;99226.91;5203967;28;20594;-59
2021/03/06 10:40:50;;;;;;;6.13;5.63;;;6.20;85.30;;;6.44;38.65;99233.78;5199273;28;20213;-61
2021/03/06 10:43:32;;;;;;;5.73;5.27;;;6.20;83.50;;;6.40;39.17;99220.63;5199391;28;20225;-60
2021/03/06 10:46:15;;;;;;;5.13;4.83;;;6.00;83.70;;;6.60;38.17;99228.50;5195887;28;20686;-59
2021/03/06 10:48:54;;;;;;;5.40;5.10;;;6.30;83.70;;;6.34;38.46;99233.66;5189203;28;20209;-58
2021/03/06 10:51:43;;;;;;;4.97;4.60;;;6.00;83.00;;;6.32;39.44;99225.91;5203866;28;20289;-60
2021/03/06 10:54:15;;;;;;;5.40;5.10;;;5.90;84.40;;;6.38;38.60;99232.28;5196928;28;20639;-60
2021/03/06 10:56:47;;;;;;;5.70;5.30;;;6.00;83.90;;;6.44;38.03;99231.25;5207183;28;20235;-61